EGVN

RAF Brize Norton Airport

Brize Norton, United Kingdom
METAR EGVN 221450Z 04014KT 9999 FEW045 21/09 Q1017 BLU NOSIG
Observed Flight Rules
May-22 @ 14:50 UTC (an hour ago) Visual Flight Rules
Wind Visibility Clouds
40° at 14 knots 10,000+ meters
  • Few at 4,500' AGL
Temperatures Readings
Current 21°C / 70°F
Dewpoint 9°C / 48°F
Humidity 46%
Altimeter 30.03" Hg
Pressure 1017 hPa
Elevation 88
METAR EGVN 221450Z 04014KT 9999 FEW045 21/09 Q1017 BLU NOSIG
Observed Flight Rules
May-22 @ 14:50 UTC
(an hour ago)
VFR
Wind Visibility
40° at 14 knots 10,000+ meters
Clouds
  • Few at 4,500' AGL
Temperature Dewpoint
21°C / 70°F 9°C / 48°F
Humidity Altimeter Pressure
46% 30.03" Hg 1017 hPa